sensor_id;sensor_type;location;lat;lon;timestamp;P1;durP1;ratioP1;P2;durP2;ratioP2
24439;SDS011;12618;54.386;18.394;2022-12-24T00:00:05;30.20;;;15.72;;
24439;SDS011;12618;54.386;18.394;2022-12-24T00:02:36;33.42;;;16.55;;
24439;SDS011;12618;54.386;18.394;2022-12-24T00:05:07;31.73;;;15.65;;
24439;SDS011;12618;54.386;18.394;2022-12-24T00:07:37;34.58;;;16.48;;
24439;SDS011;12618;54.386;18.394;2022-12-24T00:10:08;34.08;;;16.35;;
24439;SDS011;12618;54.386;18.394;2022-12-24T00:12:39;31.95;;;15.93;;
24439;SDS011;12618;54.386;18.394;2022-12-24T00:15:09;41.58;;;18.57;;
24439;SDS011;12618;54.386;18.394;2022-12-24T00:17:43;39.30;;;18.55;;
24439;SDS011;12618;54.386;18.394;2022-12-24T00:20:13;40.05;;;17.65;;
24439;SDS011;12618;54.386;18.394;2022-12-24T00:22:44;40.08;;;18.45;;
24439;SDS011;12618;54.386;18.394;2022-12-24T00:25:14;40.30;;;19.00;;
24439;SDS011;12618;54.386;18.394;2022-12-24T00:27:44;43.73;;;19.82;;
24439;SDS011;12618;54.386;18.394;2022-12-24T00:30:15;35.95;;;18.17;;
24439;SDS011;12618;54.386;18.394;2022-12-24T00:32:45;41.02;;;17.85;;
24439;SDS011;12618;54.386;18.394;2022-12-24T00:35:16;35.58;;;17.98;;
24439;SDS011;12618;54.386;18.394;2022-12-24T00:37:47;31.57;;;16.50;;
24439;SDS011;12618;54.386;18.394;2022-12-24T00:40:17;50.43;;;26.17;;
24439;SDS011;12618;54.386;18.394;2022-12-24T00:42:48;63.55;;;30.72;;
24439;SDS011;12618;54.386;18.394;2022-12-24T00:45:18;47.95;;;24.85;;
24439;SDS011;12618;54.386;18.394;2022-12-24T00:47:48;42.30;;;21.00;;
24439;SDS011;12618;54.386;18.394;2022-12-24T00:50:19;33.05;;;18.60;;
24439;SDS011;12618;54.386;18.394;2022-12-24T00:52:49;53.02;;;25.00;;
24439;SDS011;12618;54.386;18.394;2022-12-24T00:55:20;48.90;;;23.62;;
24439;SDS011;12618;54.386;18.394;2022-12-24T00:57:50;38.58;;;21.10;;
24439;SDS011;12618;54.386;18.394;2022-12-24T01:00:21;47.75;;;24.30;;
24439;SDS011;12618;54.386;18.394;2022-12-24T01:02:51;92.75;;;48.45;;
24439;SDS011;12618;54.386;18.394;2022-12-24T01:05:22;64.55;;;33.50;;
24439;SDS011;12618;54.386;18.394;2022-12-24T01:08:04;68.12;;;37.13;;
24439;SDS011;12618;54.386;18.394;2022-12-24T01:13:02;61.23;;;30.62;;
24439;SDS011;12618;54.386;18.394;2022-12-24T01:15:32;54.00;;;28.57;;
24439;SDS011;12618;54.386;18.394;2022-12-24T01:18:03;52.67;;;28.73;;
24439;SDS011;12618;54.386;18.394;2022-12-24T01:20:33;54.83;;;28.70;;
24439;SDS011;12618;54.386;18.394;2022-12-24T01:23:04;50.33;;;25.72;;
24439;SDS011;12618;54.386;18.394;2022-12-24T01:25:36;41.53;;;24.43;;
24439;SDS011;12618;54.386;18.394;2022-12-24T01:28:07;36.93;;;20.90;;
24439;SDS011;12618;54.386;18.394;2022-12-24T01:30:39;34.23;;;19.07;;
24439;SDS011;12618;54.386;18.394;2022-12-24T01:33:09;31.30;;;16.77;;
24439;SDS011;12618;54.386;18.394;2022-12-24T01:35:40;31.57;;;15.65;;
24439;SDS011;12618;54.386;18.394;2022-12-24T01:38:11;25.35;;;14.30;;
24439;SDS011;12618;54.386;18.394;2022-12-24T01:40:42;21.95;;;13.83;;
24439;SDS011;12618;54.386;18.394;2022-12-24T01:43:31;31.20;;;17.45;;
24439;SDS011;12618;54.386;18.394;2022-12-24T01:46:02;27.90;;;16.67;;
24439;SDS011;12618;54.386;18.394;2022-12-24T01:51:18;24.77;;;13.83;;
24439;SDS011;12618;54.386;18.394;2022-12-24T01:53:48;21.62;;;12.70;;
24439;SDS011;12618;54.386;18.394;2022-12-24T01:56:19;18.80;;;11.43;;
24439;SDS011;12618;54.386;18.394;2022-12-24T01:58:51;20.80;;;12.13;;
24439;SDS011;12618;54.386;18.394;2022-12-24T02:01:22;21.45;;;11.80;;
24439;SDS011;12618;54.386;18.394;2022-12-24T02:03:55;20.10;;;12.10;;
24439;SDS011;12618;54.386;18.394;2022-12-24T02:06:26;23.20;;;13.45;;
24439;SDS011;12618;54.386;18.394;2022-12-24T02:08:57;21.70;;;12.45;;
24439;SDS011;12618;54.386;18.394;2022-12-24T02:11:27;22.95;;;14.07;;
24439;SDS011;12618;54.386;18.394;2022-12-24T02:13:59;19.92;;;13.48;;
24439;SDS011;12618;54.386;18.394;2022-12-24T02:22:01;32.63;;;19.52;;
24439;SDS011;12618;54.386;18.394;2022-12-24T02:35:24;39.03;;;24.65;;
24439;SDS011;12618;54.386;18.394;2022-12-24T02:40:27;18.95;;;11.60;;
24439;SDS011;12618;54.386;18.394;2022-12-24T02:43:00;11.85;;;8.65;;
24439;SDS011;12618;54.386;18.394;2022-12-24T02:45:31;13.28;;;9.43;;
24439;SDS011;12618;54.386;18.394;2022-12-24T02:48:02;11.95;;;8.63;;
24439;SDS011;12618;54.386;18.394;2022-12-24T02:50:32;14.38;;;8.23;;
24439;SDS011;12618;54.386;18.394;2022-12-24T02:53:04;15.18;;;9.98;;
24439;SDS011;12618;54.386;18.394;2022-12-24T03:01:00;8.88;;;6.50;;
24439;SDS011;12618;54.386;18.394;2022-12-24T03:08:54;9.20;;;6.50;;
24439;SDS011;12618;54.386;18.394;2022-12-24T03:11:25;11.45;;;6.90;;
24439;SDS011;12618;54.386;18.394;2022-12-24T03:13:56;11.22;;;7.12;;
24439;SDS011;12618;54.386;18.394;2022-12-24T03:16:28;12.33;;;8.48;;
24439;SDS011;12618;54.386;18.394;2022-12-24T03:18:58;28.55;;;17.15;;
24439;SDS011;12618;54.386;18.394;2022-12-24T03:21:31;15.50;;;9.30;;
24439;SDS011;12618;54.386;18.394;2022-12-24T03:24:02;14.35;;;8.45;;
24439;SDS011;12618;54.386;18.394;2022-12-24T03:26:33;20.75;;;13.85;;
24439;SDS011;12618;54.386;18.394;2022-12-24T03:29:04;34.73;;;21.60;;
24439;SDS011;12618;54.386;18.394;2022-12-24T03:31:45;49.75;;;30.00;;
24439;SDS011;12618;54.386;18.394;2022-12-24T03:34:16;41.40;;;24.60;;
24439;SDS011;12618;54.386;18.394;2022-12-24T03:36:47;40.92;;;22.80;;
24439;SDS011;12618;54.386;18.394;2022-12-24T03:39:18;23.95;;;14.25;;
24439;SDS011;12618;54.386;18.394;2022-12-24T03:41:48;19.70;;;10.85;;
24439;SDS011;12618;54.386;18.394;2022-12-24T03:44:19;15.20;;;8.48;;
24439;SDS011;12618;54.386;18.394;2022-12-24T03:46:49;25.17;;;15.32;;
24439;SDS011;12618;54.386;18.394;2022-12-24T03:49:19;20.08;;;12.07;;
24439;SDS011;12618;54.386;18.394;2022-12-24T03:51:53;37.08;;;20.48;;
24439;SDS011;12618;54.386;18.394;2022-12-24T03:54:23;37.83;;;19.87;;
24439;SDS011;12618;54.386;18.394;2022-12-24T03:56:54;18.62;;;10.72;;
24439;SDS011;12618;54.386;18.394;2022-12-24T03:59:24;33.27;;;18.00;;
24439;SDS011;12618;54.386;18.394;2022-12-24T04:01:56;19.27;;;11.20;;
24439;SDS011;12618;54.386;18.394;2022-12-24T04:04:27;15.45;;;9.90;;
24439;SDS011;12618;54.386;18.394;2022-12-24T04:06:58;14.85;;;8.93;;
24439;SDS011;12618;54.386;18.394;2022-12-24T04:09:28;13.30;;;7.97;;
24439;SDS011;12618;54.386;18.394;2022-12-24T04:12:02;12.70;;;8.23;;
24439;SDS011;12618;54.386;18.394;2022-12-24T04:14:33;15.18;;;9.15;;
24439;SDS011;12618;54.386;18.394;2022-12-24T04:17:03;9.83;;;6.47;;
24439;SDS011;12618;54.386;18.394;2022-12-24T04:19:33;10.63;;;7.15;;
24439;SDS011;12618;54.386;18.394;2022-12-24T04:22:04;9.53;;;6.10;;
24439;SDS011;12618;54.386;18.394;2022-12-24T04:24:34;8.73;;;5.75;;
24439;SDS011;12618;54.386;18.394;2022-12-24T04:27:05;7.35;;;5.00;;
24439;SDS011;12618;54.386;18.394;2022-12-24T04:29:35;8.45;;;5.22;;
24439;SDS011;12618;54.386;18.394;2022-12-24T04:32:06;6.87;;;4.90;;
24439;SDS011;12618;54.386;18.394;2022-12-24T04:34:36;8.33;;;5.70;;
24439;SDS011;12618;54.386;18.394;2022-12-24T04:37:07;8.88;;;5.28;;
24439;SDS011;12618;54.386;18.394;2022-12-24T04:39:37;8.35;;;5.60;;
24439;SDS011;12618;54.386;18.394;2022-12-24T04:42:07;7.37;;;5.50;;
24439;SDS011;12618;54.386;18.394;2022-12-24T04:44:38;7.80;;;5.58;;
24439;SDS011;12618;54.386;18.394;2022-12-24T04:47:08;7.90;;;5.30;;
24439;SDS011;12618;54.386;18.394;2022-12-24T04:49:40;10.85;;;6.03;;
24439;SDS011;12618;54.386;18.394;2022-12-24T04:52:10;11.38;;;7.47;;
24439;SDS011;12618;54.386;18.394;2022-12-24T04:54:40;10.18;;;6.97;;
24439;SDS011;12618;54.386;18.394;2022-12-24T04:57:11;12.23;;;7.50;;
24439;SDS011;12618;54.386;18.394;2022-12-24T04:59:42;9.60;;;6.97;;
24439;SDS011;12618;54.386;18.394;2022-12-24T05:02:12;9.90;;;6.47;;
24439;SDS011;12618;54.386;18.394;2022-12-24T05:04:43;12.05;;;7.22;;
24439;SDS011;12618;54.386;18.394;2022-12-24T05:07:13;10.60;;;7.20;;
24439;SDS011;12618;54.386;18.394;2022-12-24T05:09:44;10.63;;;7.17;;
24439;SDS011;12618;54.386;18.394;2022-12-24T05:12:14;11.45;;;6.97;;
24439;SDS011;12618;54.386;18.394;2022-12-24T05:14:44;11.12;;;6.75;;
24439;SDS011;12618;54.386;18.394;2022-12-24T05:17:15;12.50;;;6.87;;
24439;SDS011;12618;54.386;18.394;2022-12-24T05:19:49;10.32;;;6.62;;
24439;SDS011;12618;54.386;18.394;2022-12-24T05:22:24;9.40;;;6.22;;
24439;SDS011;12618;54.386;18.394;2022-12-24T05:25:13;8.53;;;6.37;;
24439;SDS011;12618;54.386;18.394;2022-12-24T05:28:02;11.03;;;6.42;;
24439;SDS011;12618;54.386;18.394;2022-12-24T05:30:32;11.85;;;7.45;;
24439;SDS011;12618;54.386;18.394;2022-12-24T05:33:03;12.28;;;7.78;;
24439;SDS011;12618;54.386;18.394;2022-12-24T05:35:33;12.43;;;8.00;;
24439;SDS011;12618;54.386;18.394;2022-12-24T05:38:04;12.47;;;9.00;;
24439;SDS011;12618;54.386;18.394;2022-12-24T05:40:35;13.75;;;9.10;;
24439;SDS011;12618;54.386;18.394;2022-12-24T05:43:05;17.15;;;11.75;;
24439;SDS011;12618;54.386;18.394;2022-12-24T05:45:38;16.80;;;10.72;;
24439;SDS011;12618;54.386;18.394;2022-12-24T05:48:08;16.00;;;10.93;;
24439;SDS011;12618;54.386;18.394;2022-12-24T05:50:45;17.42;;;10.75;;
24439;SDS011;12618;54.386;18.394;2022-12-24T05:53:13;15.80;;;10.10;;
24439;SDS011;12618;54.386;18.394;2022-12-24T05:55:44;17.07;;;11.00;;
24439;SDS011;12618;54.386;18.394;2022-12-24T05:58:14;21.15;;;13.00;;
24439;SDS011;12618;54.386;18.394;2022-12-24T06:00:45;21.02;;;12.50;;
24439;SDS011;12618;54.386;18.394;2022-12-24T06:03:15;18.10;;;11.73;;
24439;SDS011;12618;54.386;18.394;2022-12-24T06:05:56;18.35;;;12.07;;
24439;SDS011;12618;54.386;18.394;2022-12-24T06:08:21;16.82;;;11.28;;
24439;SDS011;12618;54.386;18.394;2022-12-24T06:10:55;17.57;;;11.90;;
24439;SDS011;12618;54.386;18.394;2022-12-24T06:13:26;14.98;;;10.50;;
24439;SDS011;12618;54.386;18.394;2022-12-24T06:15:57;16.82;;;10.68;;
24439;SDS011;12618;54.386;18.394;2022-12-24T06:18:29;16.67;;;11.12;;
24439;SDS011;12618;54.386;18.394;2022-12-24T06:21:00;19.10;;;11.97;;
24439;SDS011;12618;54.386;18.394;2022-12-24T06:23:31;23.95;;;14.25;;
24439;SDS011;12618;54.386;18.394;2022-12-24T06:26:02;22.93;;;13.90;;
24439;SDS011;12618;54.386;18.394;2022-12-24T06:28:34;20.40;;;13.20;;
24439;SDS011;12618;54.386;18.394;2022-12-24T06:31:06;19.85;;;12.00;;
24439;SDS011;12618;54.386;18.394;2022-12-24T06:33:38;19.50;;;12.05;;
24439;SDS011;12618;54.386;18.394;2022-12-24T06:36:10;23.02;;;15.53;;
24439;SDS011;12618;54.386;18.394;2022-12-24T06:38:41;19.45;;;13.18;;
24439;SDS011;12618;54.386;18.394;2022-12-24T06:41:12;19.00;;;12.73;;
24439;SDS011;12618;54.386;18.394;2022-12-24T06:43:45;32.17;;;14.33;;
24439;SDS011;12618;54.386;18.394;2022-12-24T06:46:16;39.20;;;16.52;;
24439;SDS011;12618;54.386;18.394;2022-12-24T06:48:47;54.77;;;31.73;;
24439;SDS011;12618;54.386;18.394;2022-12-24T06:51:17;84.97;;;49.98;;
24439;SDS011;12618;54.386;18.394;2022-12-24T06:56:21;133.03;;;82.35;;
24439;SDS011;12618;54.386;18.394;2022-12-24T06:58:52;143.00;;;71.47;;
24439;SDS011;12618;54.386;18.394;2022-12-24T07:01:22;67.05;;;30.02;;
24439;SDS011;12618;54.386;18.394;2022-12-24T07:03:53;49.40;;;22.73;;
24439;SDS011;12618;54.386;18.394;2022-12-24T07:06:26;29.98;;;13.72;;
24439;SDS011;12618;54.386;18.394;2022-12-24T07:08:56;18.85;;;9.60;;
24439;SDS011;12618;54.386;18.394;2022-12-24T07:11:27;15.93;;;8.43;;
24439;SDS011;12618;54.386;18.394;2022-12-24T07:13:57;12.55;;;8.55;;
24439;SDS011;12618;54.386;18.394;2022-12-24T07:16:28;9.25;;;7.03;;
24439;SDS011;12618;54.386;18.394;2022-12-24T07:18:59;12.78;;;8.25;;
24439;SDS011;12618;54.386;18.394;2022-12-24T07:21:30;14.50;;;9.23;;
24439;SDS011;12618;54.386;18.394;2022-12-24T07:24:00;17.12;;;9.83;;
24439;SDS011;12618;54.386;18.394;2022-12-24T07:26:31;13.98;;;9.83;;
24439;SDS011;12618;54.386;18.394;2022-12-24T07:29:01;12.58;;;9.10;;
24439;SDS011;12618;54.386;18.394;2022-12-24T07:31:35;14.13;;;9.63;;
24439;SDS011;12618;54.386;18.394;2022-12-24T07:34:05;13.63;;;9.57;;
24439;SDS011;12618;54.386;18.394;2022-12-24T07:36:40;13.18;;;9.68;;
24439;SDS011;12618;54.386;18.394;2022-12-24T07:39:08;12.68;;;9.83;;
24439;SDS011;12618;54.386;18.394;2022-12-24T07:41:38;16.90;;;11.40;;
24439;SDS011;12618;54.386;18.394;2022-12-24T07:44:12;19.80;;;13.38;;
24439;SDS011;12618;54.386;18.394;2022-12-24T07:46:43;17.32;;;12.20;;
24439;SDS011;12618;54.386;18.394;2022-12-24T07:49:14;22.50;;;15.65;;
24439;SDS011;12618;54.386;18.394;2022-12-24T07:51:44;29.05;;;19.80;;
24439;SDS011;12618;54.386;18.394;2022-12-24T07:54:14;25.48;;;16.52;;
24439;SDS011;12618;54.386;18.394;2022-12-24T07:56:45;21.42;;;14.87;;
24439;SDS011;12618;54.386;18.394;2022-12-24T07:59:16;23.75;;;13.83;;
24439;SDS011;12618;54.386;18.394;2022-12-24T08:01:46;20.12;;;12.40;;
24439;SDS011;12618;54.386;18.394;2022-12-24T08:04:17;20.62;;;12.80;;
24439;SDS011;12618;54.386;18.394;2022-12-24T08:06:47;22.75;;;14.38;;
24439;SDS011;12618;54.386;18.394;2022-12-24T08:09:17;30.48;;;16.50;;
24439;SDS011;12618;54.386;18.394;2022-12-24T08:11:48;34.78;;;16.87;;
24439;SDS011;12618;54.386;18.394;2022-12-24T08:14:19;32.23;;;16.82;;
24439;SDS011;12618;54.386;18.394;2022-12-24T08:16:49;34.65;;;18.85;;
24439;SDS011;12618;54.386;18.394;2022-12-24T08:19:19;31.48;;;19.17;;
24439;SDS011;12618;54.386;18.394;2022-12-24T08:21:50;32.88;;;18.87;;
24439;SDS011;12618;54.386;18.394;2022-12-24T08:24:20;35.20;;;20.43;;
24439;SDS011;12618;54.386;18.394;2022-12-24T08:26:51;38.55;;;21.37;;
24439;SDS011;12618;54.386;18.394;2022-12-24T08:29:21;36.73;;;21.02;;
24439;SDS011;12618;54.386;18.394;2022-12-24T08:31:52;38.73;;;22.17;;
24439;SDS011;12618;54.386;18.394;2022-12-24T08:34:22;44.23;;;24.27;;
24439;SDS011;12618;54.386;18.394;2022-12-24T08:36:53;77.72;;;44.65;;
24439;SDS011;12618;54.386;18.394;2022-12-24T08:39:27;83.80;;;48.73;;
24439;SDS011;12618;54.386;18.394;2022-12-24T08:41:57;72.10;;;42.90;;
24439;SDS011;12618;54.386;18.394;2022-12-24T08:44:28;63.58;;;38.73;;
24439;SDS011;12618;54.386;18.394;2022-12-24T08:46:58;61.05;;;36.42;;
24439;SDS011;12618;54.386;18.394;2022-12-24T08:49:29;54.27;;;33.55;;
24439;SDS011;12618;54.386;18.394;2022-12-24T08:51:59;52.78;;;33.40;;
24439;SDS011;12618;54.386;18.394;2022-12-24T08:54:30;60.12;;;34.83;;
24439;SDS011;12618;54.386;18.394;2022-12-24T08:57:00;58.42;;;32.53;;
24439;SDS011;12618;54.386;18.394;2022-12-24T08:59:31;53.73;;;31.10;;
24439;SDS011;12618;54.386;18.394;2022-12-24T09:02:01;60.03;;;34.27;;
24439;SDS011;12618;54.386;18.394;2022-12-24T09:04:31;46.85;;;30.90;;
24439;SDS011;12618;54.386;18.394;2022-12-24T09:07:02;45.92;;;28.35;;
24439;SDS011;12618;54.386;18.394;2022-12-24T09:09:32;41.88;;;28.10;;
24439;SDS011;12618;54.386;18.394;2022-12-24T09:12:04;49.00;;;30.20;;
24439;SDS011;12618;54.386;18.394;2022-12-24T09:14:35;45.50;;;28.52;;
24439;SDS011;12618;54.386;18.394;2022-12-24T09:17:05;40.65;;;24.77;;
24439;SDS011;12618;54.386;18.394;2022-12-24T09:19:36;35.70;;;21.62;;
24439;SDS011;12618;54.386;18.394;2022-12-24T09:22:06;38.45;;;23.75;;
24439;SDS011;12618;54.386;18.394;2022-12-24T09:24:37;38.95;;;25.62;;
24439;SDS011;12618;54.386;18.394;2022-12-24T09:27:07;47.40;;;28.45;;
24439;SDS011;12618;54.386;18.394;2022-12-24T09:29:38;44.13;;;28.02;;
24439;SDS011;12618;54.386;18.394;2022-12-24T09:32:09;44.85;;;28.25;;
24439;SDS011;12618;54.386;18.394;2022-12-24T09:34:40;51.80;;;30.32;;
24439;SDS011;12618;54.386;18.394;2022-12-24T09:37:13;52.15;;;29.42;;
24439;SDS011;12618;54.386;18.394;2022-12-24T09:39:44;54.18;;;28.85;;
24439;SDS011;12618;54.386;18.394;2022-12-24T09:48:14;24.12;;;14.70;;
24439;SDS011;12618;54.386;18.394;2022-12-24T09:53:54;21.55;;;12.13;;
24439;SDS011;12618;54.386;18.394;2022-12-24T09:56:26;15.93;;;10.82;;
24439;SDS011;12618;54.386;18.394;2022-12-24T09:58:58;14.23;;;9.50;;
24439;SDS011;12618;54.386;18.394;2022-12-24T10:01:30;12.45;;;8.50;;
24439;SDS011;12618;54.386;18.394;2022-12-24T10:04:02;12.43;;;8.65;;
24439;SDS011;12618;54.386;18.394;2022-12-24T10:06:36;14.55;;;10.50;;
24439;SDS011;12618;54.386;18.394;2022-12-24T10:11:42;9.45;;;6.50;;
24439;SDS011;12618;54.386;18.394;2022-12-24T10:24:38;17.40;;;10.48;;
24439;SDS011;12618;54.386;18.394;2022-12-24T10:29:48;9.63;;;6.67;;
24439;SDS011;12618;54.386;18.394;2022-12-24T10:32:21;8.38;;;5.10;;
24439;SDS011;12618;54.386;18.394;2022-12-24T10:34:54;10.08;;;7.62;;
24439;SDS011;12618;54.386;18.394;2022-12-24T10:37:24;6.85;;;3.85;;
24439;SDS011;12618;54.386;18.394;2022-12-24T10:39:57;8.33;;;5.75;;
24439;SDS011;12618;54.386;18.394;2022-12-24T10:42:35;7.90;;;4.67;;
24439;SDS011;12618;54.386;18.394;2022-12-24T10:45:04;9.18;;;4.60;;
24439;SDS011;12618;54.386;18.394;2022-12-24T10:47:37;7.75;;;4.45;;
24439;SDS011;12618;54.386;18.394;2022-12-24T10:50:11;7.55;;;5.35;;
24439;SDS011;12618;54.386;18.394;2022-12-24T10:52:43;10.25;;;5.85;;
24439;SDS011;12618;54.386;18.394;2022-12-24T10:57:58;6.50;;;4.20;;
24439;SDS011;12618;54.386;18.394;2022-12-24T11:00:28;7.78;;;4.70;;
24439;SDS011;12618;54.386;18.394;2022-12-24T11:05:44;5.90;;;4.67;;
24439;SDS011;12618;54.386;18.394;2022-12-24T11:08:17;8.43;;;5.35;;
24439;SDS011;12618;54.386;18.394;2022-12-24T11:13:31;7.35;;;5.10;;
24439;SDS011;12618;54.386;18.394;2022-12-24T11:16:06;6.42;;;3.05;;
24439;SDS011;12618;54.386;18.394;2022-12-24T11:18:37;7.03;;;4.92;;
24439;SDS011;12618;54.386;18.394;2022-12-24T11:21:09;6.35;;;3.47;;
24439;SDS011;12618;54.386;18.394;2022-12-24T11:23:40;4.53;;;3.20;;
24439;SDS011;12618;54.386;18.394;2022-12-24T11:26:12;6.70;;;4.45;;
24439;SDS011;12618;54.386;18.394;2022-12-24T11:28:45;16.42;;;12.37;;
24439;SDS011;12618;54.386;18.394;2022-12-24T11:31:18;11.65;;;7.20;;
24439;SDS011;12618;54.386;18.394;2022-12-24T11:33:50;11.15;;;7.03;;
24439;SDS011;12618;54.386;18.394;2022-12-24T11:36:26;14.20;;;7.28;;
24439;SDS011;12618;54.386;18.394;2022-12-24T11:41:25;13.93;;;8.98;;
24439;SDS011;12618;54.386;18.394;2022-12-24T11:43:58;13.60;;;8.58;;
24439;SDS011;12618;54.386;18.394;2022-12-24T11:46:38;15.13;;;10.00;;
24439;SDS011;12618;54.386;18.394;2022-12-24T11:51:57;10.00;;;7.35;;
24439;SDS011;12618;54.386;18.394;2022-12-24T11:54:23;10.03;;;6.35;;
24439;SDS011;12618;54.386;18.394;2022-12-24T11:56:51;4.28;;;2.50;;
24439;SDS011;12618;54.386;18.394;2022-12-24T11:59:42;3.70;;;2.50;;
24439;SDS011;12618;54.386;18.394;2022-12-24T12:04:49;6.65;;;3.30;;
24439;SDS011;12618;54.386;18.394;2022-12-24T12:07:30;5.78;;;3.37;;
24439;SDS011;12618;54.386;18.394;2022-12-24T12:10:03;4.95;;;3.50;;
24439;SDS011;12618;54.386;18.394;2022-12-24T12:12:40;5.90;;;3.95;;
24439;SDS011;12618;54.386;18.394;2022-12-24T12:15:11;6.50;;;4.62;;
24439;SDS011;12618;54.386;18.394;2022-12-24T12:20:22;6.30;;;4.47;;
24439;SDS011;12618;54.386;18.394;2022-12-24T12:25:51;7.45;;;4.47;;
24439;SDS011;12618;54.386;18.394;2022-12-24T12:28:24;5.28;;;3.20;;
24439;SDS011;12618;54.386;18.394;2022-12-24T12:31:02;6.78;;;4.30;;
24439;SDS011;12618;54.386;18.394;2022-12-24T12:33:38;16.27;;;10.80;;
24439;SDS011;12618;54.386;18.394;2022-12-24T12:36:09;23.40;;;14.10;;
24439;SDS011;12618;54.386;18.394;2022-12-24T12:38:42;17.98;;;9.75;;
24439;SDS011;12618;54.386;18.394;2022-12-24T12:43:58;23.57;;;13.18;;
24439;SDS011;12618;54.386;18.394;2022-12-24T12:52:07;15.38;;;8.98;;
24439;SDS011;12618;54.386;18.394;2022-12-24T12:54:25;12.20;;;7.78;;
24439;SDS011;12618;54.386;18.394;2022-12-24T12:56:53;11.90;;;5.35;;
24439;SDS011;12618;54.386;18.394;2022-12-24T12:59:33;10.38;;;7.05;;
24439;SDS011;12618;54.386;18.394;2022-12-24T13:02:17;14.28;;;8.08;;
24439;SDS011;12618;54.386;18.394;2022-12-24T13:10:02;13.03;;;6.35;;
24439;SDS011;12618;54.386;18.394;2022-12-24T13:20:18;14.50;;;6.65;;
24439;SDS011;12618;54.386;18.394;2022-12-24T13:25:39;9.48;;;5.50;;
24439;SDS011;12618;54.386;18.394;2022-12-24T13:28:26;8.83;;;5.03;;
24439;SDS011;12618;54.386;18.394;2022-12-24T13:30:45;9.53;;;5.62;;
24439;SDS011;12618;54.386;18.394;2022-12-24T13:36:06;13.72;;;8.35;;
24439;SDS011;12618;54.386;18.394;2022-12-24T13:38:38;16.00;;;9.03;;
24439;SDS011;12618;54.386;18.394;2022-12-24T13:54:58;24.05;;;13.65;;
24439;SDS011;12618;54.386;18.394;2022-12-24T13:57:26;30.95;;;18.00;;
24439;SDS011;12618;54.386;18.394;2022-12-24T14:00:02;28.10;;;15.88;;
24439;SDS011;12618;54.386;18.394;2022-12-24T14:02:31;39.98;;;20.77;;
24439;SDS011;12618;54.386;18.394;2022-12-24T14:05:02;54.70;;;24.32;;
24439;SDS011;12618;54.386;18.394;2022-12-24T14:07:34;65.52;;;32.40;;
24439;SDS011;12618;54.386;18.394;2022-12-24T14:10:05;66.60;;;32.75;;
24439;SDS011;12618;54.386;18.394;2022-12-24T14:18:22;66.05;;;32.85;;
24439;SDS011;12618;54.386;18.394;2022-12-24T14:20:52;48.78;;;26.27;;
24439;SDS011;12618;54.386;18.394;2022-12-24T14:23:35;47.08;;;24.80;;
24439;SDS011;12618;54.386;18.394;2022-12-24T14:26:10;41.50;;;23.05;;
24439;SDS011;12618;54.386;18.394;2022-12-24T14:28:40;34.13;;;19.92;;
24439;SDS011;12618;54.386;18.394;2022-12-24T14:31:16;36.83;;;22.30;;
24439;SDS011;12618;54.386;18.394;2022-12-24T14:33:46;39.98;;;24.20;;
24439;SDS011;12618;54.386;18.394;2022-12-24T14:36:19;44.35;;;25.50;;
24439;SDS011;12618;54.386;18.394;2022-12-24T14:38:49;43.60;;;26.07;;
24439;SDS011;12618;54.386;18.394;2022-12-24T14:54:36;74.37;;;41.28;;
24439;SDS011;12618;54.386;18.394;2022-12-24T15:05:02;70.10;;;36.88;;
24439;SDS011;12618;54.386;18.394;2022-12-24T15:07:33;92.30;;;44.77;;
24439;SDS011;12618;54.386;18.394;2022-12-24T15:10:06;101.58;;;47.83;;
24439;SDS011;12618;54.386;18.394;2022-12-24T15:12:38;104.72;;;47.93;;
24439;SDS011;12618;54.386;18.394;2022-12-24T15:15:13;99.30;;;47.55;;
24439;SDS011;12618;54.386;18.394;2022-12-24T15:17:42;111.15;;;52.00;;
24439;SDS011;12618;54.386;18.394;2022-12-24T15:20:14;77.55;;;40.60;;
24439;SDS011;12618;54.386;18.394;2022-12-24T15:22:45;126.38;;;70.87;;
24439;SDS011;12618;54.386;18.394;2022-12-24T15:25:21;84.15;;;42.90;;
24439;SDS011;12618;54.386;18.394;2022-12-24T15:27:49;75.28;;;39.15;;
24439;SDS011;12618;54.386;18.394;2022-12-24T15:30:20;93.47;;;33.25;;
24439;SDS011;12618;54.386;18.394;2022-12-24T15:32:52;73.80;;;31.73;;
24439;SDS011;12618;54.386;18.394;2022-12-24T15:38:04;243.12;;;34.83;;
24439;SDS011;12618;54.386;18.394;2022-12-24T15:40:35;191.80;;;40.45;;
24439;SDS011;12618;54.386;18.394;2022-12-24T15:43:05;271.23;;;40.03;;
24439;SDS011;12618;54.386;18.394;2022-12-24T15:45:38;163.12;;;35.23;;
24439;SDS011;12618;54.386;18.394;2022-12-24T15:48:09;283.93;;;39.00;;
24439;SDS011;12618;54.386;18.394;2022-12-24T15:50:43;188.85;;;39.42;;
24439;SDS011;12618;54.386;18.394;2022-12-24T15:53:16;131.78;;;33.08;;
24439;SDS011;12618;54.386;18.394;2022-12-24T15:56:03;174.05;;;35.00;;
24439;SDS011;12618;54.386;18.394;2022-12-24T15:58:39;132.43;;;27.40;;
24439;SDS011;12618;54.386;18.394;2022-12-24T16:06:22;53.02;;;24.72;;
24439;SDS011;12618;54.386;18.394;2022-12-24T16:08:53;67.67;;;29.05;;
24439;SDS011;12618;54.386;18.394;2022-12-24T16:11:32;363.73;;;80.53;;
24439;SDS011;12618;54.386;18.394;2022-12-24T16:14:01;168.35;;;47.73;;
24439;SDS011;12618;54.386;18.394;2022-12-24T16:16:38;193.00;;;41.92;;
24439;SDS011;12618;54.386;18.394;2022-12-24T16:19:17;326.02;;;45.98;;
24439;SDS011;12618;54.386;18.394;2022-12-24T16:21:52;263.30;;;34.83;;
24439;SDS011;12618;54.386;18.394;2022-12-24T16:26:55;113.35;;;25.43;;
24439;SDS011;12618;54.386;18.394;2022-12-24T16:29:26;186.85;;;22.20;;
24439;SDS011;12618;54.386;18.394;2022-12-24T16:31:57;106.05;;;18.23;;
24439;SDS011;12618;54.386;18.394;2022-12-24T16:34:29;74.80;;;19.45;;
24439;SDS011;12618;54.386;18.394;2022-12-24T16:36:59;83.70;;;20.15;;
24439;SDS011;12618;54.386;18.394;2022-12-24T16:39:31;92.17;;;17.30;;
24439;SDS011;12618;54.386;18.394;2022-12-24T16:42:02;105.27;;;22.45;;
24439;SDS011;12618;54.386;18.394;2022-12-24T16:44:51;157.40;;;26.90;;
24439;SDS011;12618;54.386;18.394;2022-12-24T16:47:29;80.75;;;16.85;;
24439;SDS011;12618;54.386;18.394;2022-12-24T16:50:02;87.45;;;19.48;;
24439;SDS011;12618;54.386;18.394;2022-12-24T16:52:33;122.07;;;18.10;;
24439;SDS011;12618;54.386;18.394;2022-12-24T16:55:04;81.70;;;24.40;;
24439;SDS011;12618;54.386;18.394;2022-12-24T16:57:34;83.35;;;18.02;;
24439;SDS011;12618;54.386;18.394;2022-12-24T17:00:05;71.72;;;19.52;;
24439;SDS011;12618;54.386;18.394;2022-12-24T17:02:37;62.73;;;17.85;;
24439;SDS011;12618;54.386;18.394;2022-12-24T17:05:09;95.65;;;16.30;;
24439;SDS011;12618;54.386;18.394;2022-12-24T17:07:40;88.35;;;11.57;;
24439;SDS011;12618;54.386;18.394;2022-12-24T17:10:11;111.30;;;12.45;;
24439;SDS011;12618;54.386;18.394;2022-12-24T17:12:42;132.30;;;11.60;;
24439;SDS011;12618;54.386;18.394;2022-12-24T17:15:13;51.08;;;14.18;;
24439;SDS011;12618;54.386;18.394;2022-12-24T17:17:43;137.12;;;17.17;;
24439;SDS011;12618;54.386;18.394;2022-12-24T17:20:14;86.10;;;20.97;;